createdAt,value
2022-12-01T00:01:06.207Z,2.86
2022-12-01T00:03:33.581Z,2.70
2022-12-01T00:06:00.914Z,2.42
2022-12-01T00:08:29.091Z,2.58
2022-12-01T00:10:56.243Z,2.78
2022-12-01T00:13:22.858Z,2.74
2022-12-01T00:15:49.461Z,2.65
2022-12-01T00:18:18.832Z,2.65
2022-12-01T00:20:45.416Z,2.46
2022-12-01T00:23:11.895Z,2.19
2022-12-01T00:25:38.403Z,2.31
2022-12-01T00:28:04.839Z,2.72
2022-12-01T00:30:31.295Z,2.95
2022-12-01T00:32:57.728Z,2.46
2022-12-01T00:35:24.191Z,2.47
2022-12-01T00:37:50.642Z,2.65
2022-12-01T00:40:17.276Z,2.63
2022-12-01T00:42:43.713Z,2.75
2022-12-01T00:45:10.907Z,2.36
2022-12-01T00:47:37.522Z,2.63
2022-12-01T00:50:04.264Z,2.57
2022-12-01T00:52:30.676Z,2.34
2022-12-01T00:54:57.113Z,2.40
2022-12-01T00:57:23.531Z,2.57
2022-12-01T00:59:50.487Z,2.19
2022-12-01T01:02:17.235Z,2.53
2022-12-01T01:04:43.938Z,2.57
2022-12-01T01:07:10.405Z,2.43
2022-12-01T01:09:37.290Z,2.64
2022-12-01T01:12:03.874Z,2.59
2022-12-01T01:14:30.323Z,2.51
2022-12-01T01:16:56.850Z,2.54
2022-12-01T01:19:23.975Z,2.49
2022-12-01T01:21:50.517Z,2.35
2022-12-01T01:24:17.294Z,2.29
2022-12-01T01:26:43.760Z,2.44
2022-12-01T01:29:10.349Z,2.57
2022-12-01T01:31:36.856Z,2.40
2022-12-01T01:34:03.817Z,1.71
2022-12-01T01:36:30.933Z,2.14
2022-12-01T01:38:57.403Z,2.44
2022-12-01T01:41:24.725Z,2.61
2022-12-01T01:43:54.982Z,2.70
2022-12-01T01:46:24.260Z,2.64
2022-12-01T01:48:55.134Z,2.55
2022-12-01T01:51:30.648Z,2.40
2022-12-01T01:54:04.110Z,2.41
2022-12-01T01:56:30.938Z,2.01
2022-12-01T01:58:59.165Z,2.02
2022-12-01T02:01:25.620Z,2.48
2022-12-01T02:03:54.403Z,2.37
2022-12-01T02:06:23.957Z,2.18
2022-12-01T02:08:50.788Z,1.82
2022-12-01T02:11:32.834Z,1.86
2022-12-01T02:14:24.983Z,1.98
2022-12-01T02:17:13.250Z,2.10
2022-12-01T02:19:45.804Z,2.19
2022-12-01T02:22:30.013Z,2.33
2022-12-01T02:25:41.312Z,2.52
2022-12-01T02:28:48.168Z,2.44
2022-12-01T02:31:22.588Z,2.37
2022-12-01T02:33:53.059Z,2.59
2022-12-01T02:36:37.963Z,2.32
2022-12-01T02:42:40.034Z,2.31
2022-12-01T02:45:11.929Z,2.34
2022-12-01T02:47:40.994Z,2.29
2022-12-01T02:50:10.075Z,2.28
2022-12-01T02:52:38.437Z,1.99
2022-12-01T02:55:05.194Z,2.10
2022-12-01T02:57:31.676Z,2.19
2022-12-01T02:59:59.919Z,2.21
2022-12-01T03:02:43.846Z,2.20
2022-12-01T03:05:32.901Z,2.29
2022-12-01T03:08:05.193Z,2.14
2022-12-01T03:10:52.138Z,2.16
2022-12-01T03:13:21.511Z,2.28
2022-12-01T03:16:04.414Z,2.26
2022-12-01T03:18:42.345Z,2.13
2022-12-01T03:21:28.279Z,2.14
2022-12-01T03:24:08.722Z,2.47
2022-12-01T03:26:37.441Z,2.42
2022-12-01T03:29:13.492Z,2.37
2022-12-01T03:31:45.891Z,2.29
2022-12-01T03:34:28.301Z,2.38
2022-12-01T03:37:03.912Z,1.80
2022-12-01T03:39:33.423Z,1.65
2022-12-01T03:42:13.415Z,2.02
2022-12-01T03:44:46.256Z,1.96
2022-12-01T03:47:17.275Z,2.34
2022-12-01T03:49:45.660Z,2.33
2022-12-01T03:52:36.983Z,2.09
2022-12-01T03:55:22.562Z,2.17
2022-12-01T03:57:58.277Z,2.29
2022-12-01T04:00:25.130Z,2.31
2022-12-01T04:02:56.813Z,2.27
2022-12-01T04:05:25.437Z,1.87
2022-12-01T04:07:52.422Z,1.96
2022-12-01T04:10:19.086Z,2.04
2022-12-01T04:12:45.620Z,2.24
2022-12-01T04:15:14.326Z,2.18
2022-12-01T04:17:45.089Z,2.38
2022-12-01T04:20:15.881Z,2.23
2022-12-01T04:22:42.365Z,2.17
2022-12-01T04:25:09.762Z,2.12
2022-12-01T04:27:36.720Z,2.12
2022-12-01T04:30:05.346Z,2.26
2022-12-01T04:32:31.766Z,2.18
2022-12-01T04:34:58.211Z,2.12
2022-12-01T04:37:25.009Z,2.14
2022-12-01T04:39:51.815Z,2.25
2022-12-01T04:42:18.475Z,2.29
2022-12-01T04:44:44.929Z,2.17
2022-12-01T04:47:11.347Z,2.06
2022-12-01T04:49:37.819Z,1.88
2022-12-01T04:52:04.496Z,2.03
2022-12-01T04:54:30.929Z,1.84
2022-12-01T04:56:57.387Z,1.99
2022-12-01T04:59:23.923Z,2.21
2022-12-01T05:01:50.506Z,2.14
2022-12-01T05:04:17.011Z,2.08
2022-12-01T05:06:43.560Z,2.12
2022-12-01T05:09:17.127Z,2.16
2022-12-01T05:11:44.740Z,1.94
2022-12-01T05:14:11.195Z,1.96
2022-12-01T05:16:37.699Z,1.75
2022-12-01T05:19:24.898Z,2.06
2022-12-01T05:21:51.970Z,1.76
2022-12-01T05:24:19.712Z,1.31
2022-12-01T05:26:46.231Z,1.96
2022-12-01T05:29:13.689Z,2.06
2022-12-01T05:31:40.225Z,2.07
2022-12-01T05:34:07.522Z,1.97
2022-12-01T05:36:33.996Z,1.88
2022-12-01T05:39:00.434Z,2.05
2022-12-01T05:41:26.899Z,1.74
2022-12-01T05:43:53.344Z,1.66
2022-12-01T05:46:19.907Z,1.96
2022-12-01T05:48:47.197Z,1.63
2022-12-01T05:51:16.155Z,1.36
2022-12-01T05:53:43.439Z,1.25
2022-12-01T05:56:10.042Z,1.41
2022-12-01T05:58:36.521Z,1.72
2022-12-01T06:01:03.935Z,1.57
2022-12-01T06:03:30.521Z,1.81
2022-12-01T06:05:57.002Z,1.92
2022-12-01T06:08:23.515Z,2.14
2022-12-01T06:10:49.995Z,2.21
2022-12-01T06:13:16.550Z,1.72
2022-12-01T06:15:43.106Z,2.01
2022-12-01T06:18:09.548Z,2.20
2022-12-01T06:20:35.986Z,2.09
2022-12-01T06:23:02.483Z,1.98
2022-12-01T06:25:28.945Z,1.98
2022-12-01T06:27:57.386Z,1.95
2022-12-01T06:30:24.339Z,2.11
2022-12-01T06:32:50.818Z,1.90
2022-12-01T06:35:17.259Z,1.80
2022-12-01T06:37:43.707Z,1.98
2022-12-01T06:40:10.942Z,1.53
2022-12-01T06:42:37.366Z,1.31
2022-12-01T06:45:04.067Z,1.76
2022-12-01T06:47:30.800Z,1.98
2022-12-01T06:49:57.337Z,1.84
2022-12-01T06:52:23.824Z,1.63
2022-12-01T06:54:50.281Z,1.62
2022-12-01T06:57:17.139Z,1.85
2022-12-01T06:59:43.882Z,1.89
2022-12-01T07:02:11.493Z,1.78
2022-12-01T07:04:38.013Z,1.82
2022-12-01T07:07:05.626Z,1.59
2022-12-01T07:09:32.073Z,1.76
2022-12-01T07:11:58.489Z,1.89
2022-12-01T07:14:26.713Z,1.97
2022-12-01T07:16:53.427Z,1.80
2022-12-01T07:19:19.995Z,1.85
2022-12-01T07:21:46.437Z,1.72
2022-12-01T07:24:13.171Z,1.98
2022-12-01T07:26:41.085Z,1.52
2022-12-01T07:29:09.246Z,1.73
2022-12-01T07:31:37.057Z,1.64
2022-12-01T07:34:05.053Z,1.41
2022-12-01T07:36:31.575Z,1.75
2022-12-01T07:38:58.099Z,1.87
2022-12-01T07:41:24.572Z,1.98
2022-12-01T07:43:51.131Z,2.13
2022-12-01T07:46:23.052Z,1.86
2022-12-01T07:48:51.503Z,1.89
2022-12-01T07:51:18.097Z,1.80
2022-12-01T07:53:46.433Z,1.67
2022-12-01T07:56:13.769Z,1.88
2022-12-01T07:58:40.620Z,1.80
2022-12-01T08:01:12.741Z,1.88
2022-12-01T08:03:40.128Z,1.68
2022-12-01T08:06:07.805Z,1.93
2022-12-01T08:08:36.050Z,1.99
2022-12-01T08:11:09.666Z,1.93
2022-12-01T08:13:36.286Z,1.91
2022-12-01T08:16:05.231Z,1.99
2022-12-01T08:18:37.844Z,1.96
2022-12-01T08:21:05.608Z,1.77
2022-12-01T08:23:32.100Z,2.08
2022-12-01T08:26:03.056Z,2.22
2022-12-01T08:28:29.819Z,2.01
2022-12-01T08:30:56.606Z,2.02
2022-12-01T08:33:23.615Z,2.29
2022-12-01T08:35:50.062Z,2.18
2022-12-01T08:38:16.908Z,2.13
2022-12-01T08:40:43.346Z,2.30
2022-12-01T08:43:15.211Z,2.19
2022-12-01T08:45:49.453Z,2.10
2022-12-01T08:48:15.892Z,2.28
2022-12-01T08:50:42.324Z,2.09
2022-12-01T08:53:08.755Z,2.05
2022-12-01T08:55:35.232Z,2.21
2022-12-01T08:58:01.645Z,2.09
2022-12-01T09:00:28.761Z,1.91
2022-12-01T09:02:55.299Z,1.91
2022-12-01T09:05:21.814Z,2.18
2022-12-01T09:08:08.302Z,1.94
2022-12-01T09:10:34.753Z,2.01
2022-12-01T09:13:01.211Z,1.61
2022-12-01T09:15:27.657Z,1.90
2022-12-01T09:17:54.103Z,2.03
2022-12-01T09:20:20.678Z,1.98
2022-12-01T09:22:47.136Z,2.21
2022-12-01T09:25:14.720Z,2.19
2022-12-01T09:27:41.233Z,2.33
2022-12-01T09:30:08.309Z,2.28
2022-12-01T09:32:34.724Z,2.42
2022-12-01T09:35:01.150Z,2.13
2022-12-01T09:37:27.581Z,2.18
2022-12-01T09:39:54.025Z,2.33
2022-12-01T09:42:32.245Z,2.39
2022-12-01T09:45:02.681Z,2.37
2022-12-01T09:47:33.097Z,2.08
2022-12-01T09:50:23.980Z,2.24
2022-12-01T09:53:15.417Z,2.21
2022-12-01T09:55:42.345Z,1.71
2022-12-01T09:58:18.036Z,1.85
2022-12-01T10:00:46.922Z,1.93
2022-12-01T10:03:40.455Z,1.96
2022-12-01T10:06:27.103Z,2.19
2022-12-01T10:09:13.102Z,2.50
2022-12-01T10:11:42.606Z,2.38
2022-12-01T10:14:19.774Z,2.38
2022-12-01T10:17:39.700Z,2.56
2022-12-01T10:20:20.698Z,2.49
2022-12-01T10:23:02.531Z,2.70
2022-12-01T10:25:42.224Z,2.56
2022-12-01T10:28:36.919Z,2.58
2022-12-01T10:31:34.488Z,2.51
2022-12-01T10:34:07.872Z,2.67
2022-12-01T10:36:34.734Z,2.76
2022-12-01T10:39:04.601Z,2.66
2022-12-01T10:41:35.631Z,2.74
2022-12-01T10:44:05.486Z,2.82
2022-12-01T10:46:52.403Z,2.60
2022-12-01T10:49:19.806Z,2.56
2022-12-01T10:52:06.995Z,2.82
2022-12-01T10:54:36.994Z,2.78
2022-12-01T10:57:05.300Z,2.58
2022-12-01T10:59:37.817Z,2.81
2022-12-01T11:02:14.781Z,2.69
2022-12-01T11:05:02.705Z,2.69
2022-12-01T11:07:33.438Z,2.70
2022-12-01T11:10:14.438Z,2.50
2022-12-01T11:12:43.036Z,2.15
2022-12-01T11:15:20.896Z,2.60
2022-12-01T11:17:47.579Z,2.72
2022-12-01T11:20:27.994Z,2.59
2022-12-01T11:23:09.582Z,2.72
2022-12-01T11:25:36.694Z,2.52
2022-12-01T11:28:04.440Z,2.36
2022-12-01T11:30:32.695Z,2.83
2022-12-01T11:33:02.023Z,1.99
2022-12-01T11:35:32.080Z,2.07
2022-12-01T11:40:56.380Z,2.59
2022-12-01T11:43:30.586Z,2.42
2022-12-01T11:45:59.641Z,2.75
2022-12-01T11:48:27.550Z,2.69
2022-12-01T11:51:07.292Z,3.03
2022-12-01T11:53:37.326Z,2.72
2022-12-01T11:56:14.894Z,2.81
2022-12-01T11:58:43.008Z,2.59
2022-12-01T12:01:22.186Z,2.86
2022-12-01T12:03:54.066Z,2.80
2022-12-01T12:06:42.478Z,2.66
2022-12-01T12:12:46.818Z,2.68
2022-12-01T12:15:44.573Z,2.67
2022-12-01T12:18:25.244Z,2.53
2022-12-01T12:21:19.662Z,2.53
2022-12-01T12:24:13.441Z,2.12
2022-12-01T12:26:50.074Z,2.28
2022-12-01T12:29:45.570Z,2.19
2022-12-01T12:32:46.080Z,2.60
2022-12-01T12:35:36.287Z,1.78
2022-12-01T12:38:38.256Z,2.41
2022-12-01T12:41:30.784Z,2.42
2022-12-01T12:44:22.751Z,2.25
2022-12-01T12:47:21.601Z,2.04
2022-12-01T12:50:00.264Z,2.41
2022-12-01T12:52:33.526Z,2.42
2022-12-01T12:55:15.413Z,2.37
2022-12-01T12:58:29.075Z,2.37
2022-12-01T13:01:03.505Z,2.84
2022-12-01T13:03:45.287Z,2.72
2022-12-01T13:06:19.676Z,2.61
2022-12-01T13:08:53.370Z,2.81
2022-12-01T13:11:46.088Z,2.93
2022-12-01T13:14:33.038Z,2.78
2022-12-01T13:17:15.697Z,2.84
2022-12-01T13:19:42.833Z,2.92
2022-12-01T13:22:12.483Z,2.79
2022-12-01T13:24:39.230Z,2.82
2022-12-01T13:27:13.068Z,2.95
2022-12-01T13:29:46.154Z,3.05
2022-12-01T13:32:36.758Z,2.87
2022-12-01T13:35:06.450Z,2.96
2022-12-01T13:37:35.591Z,2.86
2022-12-01T13:40:22.876Z,2.83
2022-12-01T13:43:10.637Z,2.20
2022-12-01T13:45:40.119Z,2.36
2022-12-01T13:48:47.959Z,2.43
2022-12-01T13:51:14.825Z,2.51
2022-12-01T13:54:05.347Z,2.76
2022-12-01T13:56:46.653Z,2.70
2022-12-01T13:59:41.192Z,2.44
2022-12-01T14:02:17.761Z,2.72
2022-12-01T14:04:44.423Z,2.64
2022-12-01T14:07:34.112Z,2.80
2022-12-01T14:10:22.545Z,2.49
2022-12-01T14:12:50.224Z,2.60
2022-12-01T14:15:33.728Z,2.69
2022-12-01T14:18:05.512Z,2.59
2022-12-01T14:20:37.791Z,2.50
2022-12-01T14:23:28.928Z,2.51
2022-12-01T14:26:19.451Z,2.36
2022-12-01T14:28:55.067Z,2.64
2022-12-01T14:31:33.729Z,2.80
2022-12-01T14:34:19.357Z,2.40
2022-12-01T14:36:56.789Z,2.36
2022-12-01T14:39:27.064Z,2.48
2022-12-01T14:41:58.532Z,2.60
2022-12-01T14:44:44.683Z,2.63
2022-12-01T14:47:20.867Z,2.55
2022-12-01T14:49:50.817Z,2.64
2022-12-01T14:52:39.783Z,2.46
2022-12-01T14:55:29.530Z,2.45
2022-12-01T14:58:05.059Z,2.65
2022-12-01T15:00:36.433Z,2.36
2022-12-01T15:03:09.646Z,2.43
2022-12-01T15:05:41.908Z,2.24
2022-12-01T15:11:21.393Z,2.23
2022-12-01T15:13:56.247Z,2.43
2022-12-01T15:16:29.222Z,2.35
2022-12-01T15:18:56.265Z,2.06
2022-12-01T15:21:31.822Z,1.88
2022-12-01T15:24:04.378Z,2.17
2022-12-01T15:26:32.273Z,2.40
2022-12-01T15:29:31.222Z,1.86
2022-12-01T15:32:04.714Z,2.19
2022-12-01T15:34:35.004Z,2.37
2022-12-01T15:37:05.343Z,2.37
2022-12-01T15:40:11.907Z,1.57
2022-12-01T15:42:43.893Z,1.63
2022-12-01T15:45:21.261Z,2.00
2022-12-01T15:47:50.006Z,1.71
2022-12-01T15:50:30.982Z,1.98
2022-12-01T15:52:58.647Z,1.58
2022-12-01T15:55:32.609Z,1.49
2022-12-01T15:58:00.269Z,1.67
2022-12-01T16:00:27.048Z,1.42
2022-12-01T16:02:56.572Z,1.64
2022-12-01T16:05:29.944Z,1.48
2022-12-01T16:08:13.502Z,1.44
2022-12-01T16:10:40.520Z,1.76
2022-12-01T16:13:35.654Z,1.59
2022-12-01T16:16:23.068Z,1.39
2022-12-01T16:18:55.795Z,1.80
2022-12-01T16:21:22.917Z,2.05
2022-12-01T16:24:01.095Z,1.97
2022-12-01T16:26:28.440Z,1.96
2022-12-01T16:28:55.686Z,2.06
2022-12-01T16:31:22.635Z,1.88
2022-12-01T16:34:00.316Z,1.84
2022-12-01T16:36:27.155Z,1.95
2022-12-01T16:38:53.637Z,1.92
2022-12-01T16:41:36.383Z,1.71
2022-12-01T16:44:27.590Z,1.92
2022-12-01T16:46:52.574Z,2.03
2022-12-01T16:49:19.038Z,2.16
2022-12-01T16:52:11.114Z,2.06
2022-12-01T16:54:31.940Z,2.15
2022-12-01T16:56:58.371Z,2.16
2022-12-01T16:59:25.261Z,2.10
2022-12-01T17:01:51.747Z,2.02
2022-12-01T17:04:18.344Z,1.99
2022-12-01T17:06:44.784Z,2.07
2022-12-01T17:09:11.263Z,2.00
2022-12-01T17:11:37.699Z,2.21
2022-12-01T17:14:04.211Z,2.18
2022-12-01T17:16:30.735Z,2.30
2022-12-01T17:18:57.247Z,2.23
2022-12-01T17:21:23.740Z,2.05
2022-12-01T17:23:50.174Z,2.12
2022-12-01T17:26:18.989Z,1.98
2022-12-01T17:28:46.728Z,2.10
2022-12-01T17:31:13.850Z,1.92
2022-12-01T17:33:41.062Z,1.97
2022-12-01T17:36:11.265Z,1.86
2022-12-01T17:38:39.331Z,1.88
2022-12-01T17:41:09.101Z,1.83
2022-12-01T17:43:37.389Z,1.88
2022-12-01T17:46:05.701Z,2.05
2022-12-01T17:48:40.828Z,2.02
2022-12-01T17:51:08.887Z,2.05
2022-12-01T17:53:36.086Z,1.97
2022-12-01T17:56:02.704Z,2.05
2022-12-01T17:58:30.201Z,1.78
2022-12-01T18:00:56.633Z,1.80
2022-12-01T18:03:23.127Z,2.03
2022-12-01T18:05:57.147Z,2.00
2022-12-01T18:08:25.692Z,1.95
2022-12-01T18:10:52.915Z,1.70
2022-12-01T18:13:21.455Z,1.78
2022-12-01T18:15:48.810Z,1.95
2022-12-01T18:18:15.518Z,1.87
2022-12-01T18:20:43.645Z,1.76
2022-12-01T18:23:11.142Z,1.74
2022-12-01T18:25:38.946Z,1.63
2022-12-01T18:28:06.136Z,1.39
2022-12-01T18:30:33.612Z,1.53
2022-12-01T18:33:01.001Z,1.72
2022-12-01T18:35:31.803Z,1.58
2022-12-01T18:37:58.699Z,1.33
2022-12-01T18:40:26.019Z,1.71
2022-12-01T18:42:52.443Z,1.57
2022-12-01T18:45:21.499Z,1.30
2022-12-01T18:47:48.144Z,1.28
2022-12-01T18:50:14.937Z,1.66
2022-12-01T18:52:41.556Z,1.63
2022-12-01T18:55:08.757Z,1.35
2022-12-01T18:57:35.554Z,1.66
2022-12-01T19:00:04.673Z,1.06
2022-12-01T19:02:31.211Z,1.32
2022-12-01T19:04:57.750Z,1.12
2022-12-01T19:07:29.530Z,1.49
2022-12-01T19:09:56.339Z,1.45
2022-12-01T19:12:24.411Z,1.24
2022-12-01T19:14:52.949Z,1.27
2022-12-01T19:17:19.947Z,1.18
2022-12-01T19:19:47.368Z,1.19
2022-12-01T19:22:14.023Z,1.20
2022-12-01T19:24:40.477Z,1.60
2022-12-01T19:27:07.124Z,1.32
2022-12-01T19:29:33.672Z,1.60
2022-12-01T19:32:00.614Z,1.55
2022-12-01T19:34:27.491Z,1.27
2022-12-01T19:36:56.804Z,1.02
2022-12-01T19:39:23.973Z,1.31
2022-12-01T19:41:51.965Z,1.27
2022-12-01T19:44:18.665Z,1.20
2022-12-01T19:46:45.402Z,1.56
2022-12-01T19:49:11.874Z,1.65
2022-12-01T19:51:39.523Z,1.79
2022-12-01T19:54:15.421Z,1.44
2022-12-01T19:56:42.669Z,1.29
2022-12-01T19:59:11.209Z,1.13
2022-12-01T20:01:38.011Z,1.41
2022-12-01T20:04:04.625Z,1.42
2022-12-01T20:06:33.340Z,1.43
2022-12-01T20:09:02.021Z,1.59
2022-12-01T20:11:29.848Z,1.65
2022-12-01T20:13:56.693Z,1.32
2022-12-01T20:16:24.584Z,1.46
2022-12-01T20:18:52.210Z,1.59
2022-12-01T20:21:24.208Z,1.29
2022-12-01T20:24:04.566Z,1.30
2022-12-01T20:26:37.298Z,1.36
2022-12-01T20:29:08.195Z,1.47
2022-12-01T20:31:35.344Z,1.37
2022-12-01T20:34:04.947Z,1.45
2022-12-01T20:36:31.521Z,1.58
2022-12-01T20:38:58.031Z,1.59
2022-12-01T20:41:24.471Z,1.62
2022-12-01T20:43:50.927Z,1.56
2022-12-01T20:46:17.473Z,1.68
2022-12-01T20:48:44.072Z,1.71
2022-12-01T20:51:13.939Z,1.55
2022-12-01T20:53:42.436Z,1.44
2022-12-01T20:56:17.190Z,1.65
2022-12-01T20:58:43.717Z,1.38
2022-12-01T21:01:12.657Z,1.56
2022-12-01T21:03:41.977Z,1.57
2022-12-01T21:06:09.961Z,1.48
2022-12-01T21:08:41.638Z,1.54
2022-12-01T21:11:48.021Z,1.58
2022-12-01T21:14:35.174Z,1.70
2022-12-01T21:17:11.080Z,1.83
2022-12-01T21:19:53.315Z,1.42
2022-12-01T21:22:20.129Z,1.37
2022-12-01T21:24:51.062Z,1.56
2022-12-01T21:27:18.204Z,1.54
2022-12-01T21:29:47.617Z,1.54
2022-12-01T21:32:26.939Z,1.52
2022-12-01T21:34:55.529Z,1.65
2022-12-01T21:37:24.582Z,1.60
2022-12-01T21:39:52.928Z,1.72
2022-12-01T21:42:22.146Z,1.74
2022-12-01T21:44:49.205Z,1.78
2022-12-01T21:47:20.257Z,1.40
2022-12-01T21:49:50.594Z,1.24
2022-12-01T21:52:20.142Z,1.36
2022-12-01T21:54:47.062Z,1.21
2022-12-01T21:57:47.309Z,1.57
2022-12-01T22:00:25.663Z,1.24
2022-12-01T22:03:30.943Z,1.12
2022-12-01T22:06:29.907Z,1.20
2022-12-01T22:09:11.588Z,1.26
2022-12-01T22:11:38.050Z,1.07
2022-12-01T22:14:21.831Z,0.97
2022-12-01T22:16:56.225Z,1.13
2022-12-01T22:19:27.657Z,1.03
2022-12-01T22:22:09.319Z,1.15
2022-12-01T22:24:49.574Z,1.15
2022-12-01T22:27:26.922Z,1.10
2022-12-01T22:30:19.478Z,1.14
2022-12-01T22:33:05.460Z,1.02
2022-12-01T22:35:44.978Z,1.18
2022-12-01T22:38:20.765Z,1.18
2022-12-01T22:41:26.600Z,1.26
2022-12-01T22:44:00.467Z,1.18
2022-12-01T22:46:33.782Z,1.09
2022-12-01T22:49:08.046Z,1.40
2022-12-01T22:51:56.875Z,1.37
2022-12-01T22:54:34.823Z,1.51
2022-12-01T22:57:14.801Z,1.59
2022-12-01T22:59:44.617Z,1.47
2022-12-01T23:02:23.473Z,1.55
2022-12-01T23:04:55.753Z,1.35
2022-12-01T23:07:36.820Z,1.47
2022-12-01T23:10:17.044Z,1.48
2022-12-01T23:12:45.233Z,1.31
2022-12-01T23:15:27.255Z,1.12
2022-12-01T23:17:53.873Z,1.36
2022-12-01T23:20:20.268Z,1.45
2022-12-01T23:22:47.499Z,1.38
2022-12-01T23:25:18.155Z,1.42
2022-12-01T23:27:51.045Z,1.14
2022-12-01T23:30:19.357Z,1.07
2022-12-01T23:32:55.699Z,1.24
2022-12-01T23:35:22.138Z,1.24
2022-12-01T23:37:48.602Z,1.21
2022-12-01T23:40:20.516Z,1.00
2022-12-01T23:42:47.470Z,1.31
2022-12-01T23:45:19.293Z,1.39
2022-12-01T23:47:46.028Z,1.55
2022-12-01T23:50:24.694Z,1.24
2022-12-01T23:52:51.762Z,1.22
2022-12-01T23:55:23.047Z,1.24
2022-12-01T23:57:49.987Z,1.14
